KCYS

Cheyenne Regional/Jerry Olson Field Airport

Cheyenne, Wyoming, USA
METAR KCYS 170544Z AUTO 05005KT 1/4SM FZFG VV001 M03/M03 A2993 RMK AO2 I1002 T10331033 RVRNO $
Observed Flight Rules
Dec-17 @ 05:44 UTC (24 minutes ago) Instrument Flight Rules
Wind Visibility Clouds Conditions
50° at 5 knots 1/4 miles
  • Vertical visibility at 100' AGL
  • Freezing
  • Fog
Temperatures Readings
Current -3°C / 27°F
Dewpoint -3°C / 27°F
Humidity 100%
Altimeter 29.93" Hg
Pressure 1014 hPa
Elevation 1868
METAR KCYS 170544Z AUTO 05005KT 1/4SM FZFG VV001 M03/M03 A2993 RMK AO2 I1002 T10331033 RVRNO $
Observed Flight Rules
Dec-17 @ 05:44 UTC
(24 minutes ago)
LIFR
Wind Visibility
50° at 5 knots 1/4 miles
Clouds
  • Vertical visibility at 100' AGL
Conditions
  • Freezing
  • Fog
Temperature Dewpoint
-3°C / 27°F -3°C / 27°F
Humidity Altimeter Pressure
100% 29.93" Hg 1014 hPa